sensor_id;sensor_type;location;lat;lon;timestamp;P1;durP1;ratioP1;P2;durP2;ratioP2
74177;SDS011;62540;48.456;-4.456;2022-08-19T00:00:15;3.75;;;3.75;;
74177;SDS011;62540;48.456;-4.456;2022-08-19T00:02:41;4.25;;;3.00;;
74177;SDS011;62540;48.456;-4.456;2022-08-19T00:05:07;3.00;;;2.25;;
74177;SDS011;62540;48.456;-4.456;2022-08-19T00:07:34;3.25;;;3.25;;
74177;SDS011;62540;48.456;-4.456;2022-08-19T00:10:00;3.25;;;3.00;;
74177;SDS011;62540;48.456;-4.456;2022-08-19T00:12:26;3.25;;;3.25;;
74177;SDS011;62540;48.456;-4.456;2022-08-19T00:14:52;2.00;;;2.00;;
74177;SDS011;62540;48.456;-4.456;2022-08-19T00:17:19;4.00;;;1.75;;
74177;SDS011;62540;48.456;-4.456;2022-08-19T00:19:45;3.25;;;3.25;;
74177;SDS011;62540;48.456;-4.456;2022-08-19T00:22:10;4.25;;;4.25;;
74177;SDS011;62540;48.456;-4.456;2022-08-19T00:24:36;5.50;;;3.00;;
74177;SDS011;62540;48.456;-4.456;2022-08-19T00:27:03;3.75;;;3.00;;
74177;SDS011;62540;48.456;-4.456;2022-08-19T00:29:29;3.00;;;2.00;;
74177;SDS011;62540;48.456;-4.456;2022-08-19T00:31:55;3.25;;;3.25;;
74177;SDS011;62540;48.456;-4.456;2022-08-19T00:34:23;3.75;;;3.00;;
74177;SDS011;62540;48.456;-4.456;2022-08-19T00:36:50;5.50;;;4.00;;
74177;SDS011;62540;48.456;-4.456;2022-08-19T00:39:15;2.25;;;2.25;;
74177;SDS011;62540;48.456;-4.456;2022-08-19T00:41:42;3.25;;;2.50;;
74177;SDS011;62540;48.456;-4.456;2022-08-19T00:44:24;5.00;;;4.00;;
74177;SDS011;62540;48.456;-4.456;2022-08-19T00:46:52;4.00;;;3.50;;
74177;SDS011;62540;48.456;-4.456;2022-08-19T00:49:25;4.00;;;3.25;;
74177;SDS011;62540;48.456;-4.456;2022-08-19T00:52:00;5.50;;;1.50;;
74177;SDS011;62540;48.456;-4.456;2022-08-19T00:54:31;5.25;;;3.00;;
74177;SDS011;62540;48.456;-4.456;2022-08-19T00:56:58;3.75;;;3.25;;
74177;SDS011;62540;48.456;-4.456;2022-08-19T00:59:25;4.50;;;3.00;;
74177;SDS011;62540;48.456;-4.456;2022-08-19T01:01:53;2.25;;;2.25;;
74177;SDS011;62540;48.456;-4.456;2022-08-19T01:04:18;4.50;;;2.50;;
74177;SDS011;62540;48.456;-4.456;2022-08-19T01:06:44;4.00;;;3.75;;
74177;SDS011;62540;48.456;-4.456;2022-08-19T01:09:09;4.00;;;2.00;;
74177;SDS011;62540;48.456;-4.456;2022-08-19T01:11:36;4.25;;;4.00;;
74177;SDS011;62540;48.456;-4.456;2022-08-19T01:14:05;7.25;;;3.50;;
74177;SDS011;62540;48.456;-4.456;2022-08-19T01:16:32;3.00;;;3.00;;
74177;SDS011;62540;48.456;-4.456;2022-08-19T01:18:59;2.00;;;2.00;;
74177;SDS011;62540;48.456;-4.456;2022-08-19T01:21:33;5.00;;;4.50;;
74177;SDS011;62540;48.456;-4.456;2022-08-19T01:24:05;3.00;;;2.25;;
74177;SDS011;62540;48.456;-4.456;2022-08-19T01:26:31;4.00;;;3.00;;
74177;SDS011;62540;48.456;-4.456;2022-08-19T01:29:02;4.25;;;3.00;;
74177;SDS011;62540;48.456;-4.456;2022-08-19T01:31:28;4.50;;;3.00;;
74177;SDS011;62540;48.456;-4.456;2022-08-19T01:33:57;5.25;;;2.50;;
74177;SDS011;62540;48.456;-4.456;2022-08-19T01:38:57;3.00;;;2.00;;
74177;SDS011;62540;48.456;-4.456;2022-08-19T01:41:25;6.50;;;4.50;;
74177;SDS011;62540;48.456;-4.456;2022-08-19T01:43:51;5.50;;;5.00;;
74177;SDS011;62540;48.456;-4.456;2022-08-19T01:46:17;4.50;;;3.50;;
74177;SDS011;62540;48.456;-4.456;2022-08-19T01:48:43;5.00;;;3.00;;
74177;SDS011;62540;48.456;-4.456;2022-08-19T01:51:11;7.50;;;4.00;;
74177;SDS011;62540;48.456;-4.456;2022-08-19T01:53:37;3.00;;;2.50;;
74177;SDS011;62540;48.456;-4.456;2022-08-19T01:56:03;3.75;;;3.00;;
74177;SDS011;62540;48.456;-4.456;2022-08-19T01:58:32;4.00;;;4.00;;
74177;SDS011;62540;48.456;-4.456;2022-08-19T02:01:03;3.00;;;3.00;;
74177;SDS011;62540;48.456;-4.456;2022-08-19T02:03:30;3.00;;;2.00;;
74177;SDS011;62540;48.456;-4.456;2022-08-19T02:05:56;5.00;;;3.00;;
74177;SDS011;62540;48.456;-4.456;2022-08-19T02:08:24;3.25;;;2.50;;
74177;SDS011;62540;48.456;-4.456;2022-08-19T02:10:51;1.00;;;1.00;;
74177;SDS011;62540;48.456;-4.456;2022-08-19T02:13:17;2.75;;;2.75;;
74177;SDS011;62540;48.456;-4.456;2022-08-19T02:15:43;5.50;;;4.00;;
74177;SDS011;62540;48.456;-4.456;2022-08-19T02:18:08;3.75;;;3.00;;
74177;SDS011;62540;48.456;-4.456;2022-08-19T02:20:34;5.75;;;5.25;;
74177;SDS011;62540;48.456;-4.456;2022-08-19T02:23:01;4.25;;;3.00;;
74177;SDS011;62540;48.456;-4.456;2022-08-19T02:25:26;3.00;;;2.50;;
74177;SDS011;62540;48.456;-4.456;2022-08-19T02:27:52;6.25;;;3.00;;
74177;SDS011;62540;48.456;-4.456;2022-08-19T02:30:18;3.00;;;3.00;;
74177;SDS011;62540;48.456;-4.456;2022-08-19T02:32:44;3.75;;;3.00;;
74177;SDS011;62540;48.456;-4.456;2022-08-19T02:35:11;3.50;;;1.25;;
74177;SDS011;62540;48.456;-4.456;2022-08-19T02:37:37;4.00;;;3.00;;
74177;SDS011;62540;48.456;-4.456;2022-08-19T02:40:21;4.00;;;3.00;;
74177;SDS011;62540;48.456;-4.456;2022-08-19T02:42:46;3.50;;;2.75;;
74177;SDS011;62540;48.456;-4.456;2022-08-19T02:45:12;3.00;;;2.00;;
74177;SDS011;62540;48.456;-4.456;2022-08-19T02:47:39;1.50;;;1.50;;
74177;SDS011;62540;48.456;-4.456;2022-08-19T02:50:05;2.00;;;1.00;;
74177;SDS011;62540;48.456;-4.456;2022-08-19T02:52:31;1.75;;;1.00;;
74177;SDS011;62540;48.456;-4.456;2022-08-19T02:54:57;4.00;;;3.00;;
74177;SDS011;62540;48.456;-4.456;2022-08-19T02:57:23;1.00;;;1.00;;
74177;SDS011;62540;48.456;-4.456;2022-08-19T02:59:49;1.25;;;1.00;;
74177;SDS011;62540;48.456;-4.456;2022-08-19T03:02:15;2.50;;;1.50;;
74177;SDS011;62540;48.456;-4.456;2022-08-19T03:04:41;1.75;;;1.75;;
74177;SDS011;62540;48.456;-4.456;2022-08-19T03:07:07;0.75;;;0.75;;
74177;SDS011;62540;48.456;-4.456;2022-08-19T03:09:32;2.75;;;1.00;;
74177;SDS011;62540;48.456;-4.456;2022-08-19T03:11:58;2.00;;;1.00;;
74177;SDS011;62540;48.456;-4.456;2022-08-19T03:14:23;2.50;;;2.00;;
74177;SDS011;62540;48.456;-4.456;2022-08-19T03:16:50;2.75;;;1.50;;
74177;SDS011;62540;48.456;-4.456;2022-08-19T03:19:17;1.00;;;1.00;;
74177;SDS011;62540;48.456;-4.456;2022-08-19T03:21:44;2.00;;;1.25;;
74177;SDS011;62540;48.456;-4.456;2022-08-19T03:24:10;1.00;;;1.00;;
74177;SDS011;62540;48.456;-4.456;2022-08-19T03:26:40;2.50;;;1.75;;
74177;SDS011;62540;48.456;-4.456;2022-08-19T03:29:07;2.25;;;2.00;;
74177;SDS011;62540;48.456;-4.456;2022-08-19T03:31:35;1.50;;;1.00;;
74177;SDS011;62540;48.456;-4.456;2022-08-19T03:34:00;1.25;;;0.75;;
74177;SDS011;62540;48.456;-4.456;2022-08-19T03:36:26;2.00;;;1.50;;
74177;SDS011;62540;48.456;-4.456;2022-08-19T03:38:53;3.00;;;1.00;;
74177;SDS011;62540;48.456;-4.456;2022-08-19T03:41:27;1.00;;;1.00;;
74177;SDS011;62540;48.456;-4.456;2022-08-19T03:43:56;2.00;;;1.25;;
74177;SDS011;62540;48.456;-4.456;2022-08-19T03:46:26;2.75;;;1.00;;
74177;SDS011;62540;48.456;-4.456;2022-08-19T03:48:54;2.00;;;1.50;;
74177;SDS011;62540;48.456;-4.456;2022-08-19T03:53:52;1.50;;;0.50;;
74177;SDS011;62540;48.456;-4.456;2022-08-19T03:56:19;2.25;;;1.00;;
74177;SDS011;62540;48.456;-4.456;2022-08-19T03:58:44;4.00;;;1.50;;
74177;SDS011;62540;48.456;-4.456;2022-08-19T04:01:12;2.25;;;2.00;;
74177;SDS011;62540;48.456;-4.456;2022-08-19T04:03:42;2.25;;;1.50;;
74177;SDS011;62540;48.456;-4.456;2022-08-19T04:06:12;2.25;;;0.00;;
74177;SDS011;62540;48.456;-4.456;2022-08-19T04:08:43;1.00;;;1.00;;
74177;SDS011;62540;48.456;-4.456;2022-08-19T04:11:11;1.50;;;1.50;;
74177;SDS011;62540;48.456;-4.456;2022-08-19T04:13:38;1.50;;;1.00;;
74177;SDS011;62540;48.456;-4.456;2022-08-19T04:16:04;1.50;;;1.00;;
74177;SDS011;62540;48.456;-4.456;2022-08-19T04:18:30;1.00;;;1.00;;
74177;SDS011;62540;48.456;-4.456;2022-08-19T04:20:57;3.25;;;2.00;;
74177;SDS011;62540;48.456;-4.456;2022-08-19T04:23:23;2.75;;;2.00;;
74177;SDS011;62540;48.456;-4.456;2022-08-19T04:25:49;2.25;;;2.00;;
74177;SDS011;62540;48.456;-4.456;2022-08-19T04:28:14;1.25;;;1.00;;
74177;SDS011;62540;48.456;-4.456;2022-08-19T04:30:41;4.00;;;2.00;;
74177;SDS011;62540;48.456;-4.456;2022-08-19T04:33:08;1.00;;;1.00;;
74177;SDS011;62540;48.456;-4.456;2022-08-19T04:35:39;1.50;;;1.25;;
74177;SDS011;62540;48.456;-4.456;2022-08-19T04:38:06;1.25;;;1.00;;
74177;SDS011;62540;48.456;-4.456;2022-08-19T04:40:32;1.25;;;1.25;;
74177;SDS011;62540;48.456;-4.456;2022-08-19T04:43:17;2.75;;;1.00;;
74177;SDS011;62540;48.456;-4.456;2022-08-19T04:45:43;3.00;;;1.00;;
74177;SDS011;62540;48.456;-4.456;2022-08-19T04:48:09;2.50;;;2.00;;
74177;SDS011;62540;48.456;-4.456;2022-08-19T04:50:36;1.00;;;1.00;;
74177;SDS011;62540;48.456;-4.456;2022-08-19T04:53:01;2.25;;;2.25;;
74177;SDS011;62540;48.456;-4.456;2022-08-19T04:55:26;2.25;;;1.25;;
74177;SDS011;62540;48.456;-4.456;2022-08-19T04:57:52;2.50;;;2.25;;
74177;SDS011;62540;48.456;-4.456;2022-08-19T05:00:18;3.25;;;2.00;;
74177;SDS011;62540;48.456;-4.456;2022-08-19T05:02:44;2.00;;;2.00;;
74177;SDS011;62540;48.456;-4.456;2022-08-19T05:05:09;2.00;;;2.00;;
74177;SDS011;62540;48.456;-4.456;2022-08-19T05:07:35;2.50;;;1.75;;
74177;SDS011;62540;48.456;-4.456;2022-08-19T05:10:02;1.00;;;1.00;;
74177;SDS011;62540;48.456;-4.456;2022-08-19T05:12:29;4.50;;;2.50;;
74177;SDS011;62540;48.456;-4.456;2022-08-19T05:14:55;2.00;;;1.50;;
74177;SDS011;62540;48.456;-4.456;2022-08-19T05:17:22;2.25;;;1.50;;
74177;SDS011;62540;48.456;-4.456;2022-08-19T05:19:47;3.00;;;3.00;;
74177;SDS011;62540;48.456;-4.456;2022-08-19T05:22:31;4.00;;;2.00;;
74177;SDS011;62540;48.456;-4.456;2022-08-19T05:24:57;2.00;;;2.00;;
74177;SDS011;62540;48.456;-4.456;2022-08-19T05:27:23;3.00;;;2.75;;
74177;SDS011;62540;48.456;-4.456;2022-08-19T05:29:48;4.50;;;3.00;;
74177;SDS011;62540;48.456;-4.456;2022-08-19T05:32:14;4.00;;;2.25;;
74177;SDS011;62540;48.456;-4.456;2022-08-19T05:34:39;3.00;;;2.00;;
74177;SDS011;62540;48.456;-4.456;2022-08-19T05:37:04;3.25;;;2.50;;
74177;SDS011;62540;48.456;-4.456;2022-08-19T05:39:32;2.00;;;2.00;;
74177;SDS011;62540;48.456;-4.456;2022-08-19T05:42:00;3.50;;;2.50;;
74177;SDS011;62540;48.456;-4.456;2022-08-19T05:44:30;1.25;;;1.25;;
74177;SDS011;62540;48.456;-4.456;2022-08-19T05:46:58;2.50;;;2.50;;
74177;SDS011;62540;48.456;-4.456;2022-08-19T05:49:24;5.00;;;2.25;;
74177;SDS011;62540;48.456;-4.456;2022-08-19T05:51:51;2.00;;;2.00;;
74177;SDS011;62540;48.456;-4.456;2022-08-19T05:54:18;2.25;;;1.75;;
74177;SDS011;62540;48.456;-4.456;2022-08-19T05:56:44;2.50;;;2.00;;
74177;SDS011;62540;48.456;-4.456;2022-08-19T05:59:12;1.00;;;1.00;;
74177;SDS011;62540;48.456;-4.456;2022-08-19T06:01:39;3.75;;;2.50;;
74177;SDS011;62540;48.456;-4.456;2022-08-19T06:04:06;1.25;;;1.25;;
74177;SDS011;62540;48.456;-4.456;2022-08-19T06:06:33;1.75;;;1.00;;
74177;SDS011;62540;48.456;-4.456;2022-08-19T06:09:00;2.00;;;2.00;;
74177;SDS011;62540;48.456;-4.456;2022-08-19T06:11:33;1.75;;;1.75;;
74177;SDS011;62540;48.456;-4.456;2022-08-19T06:14:06;1.00;;;1.00;;
74177;SDS011;62540;48.456;-4.456;2022-08-19T06:16:35;1.00;;;1.00;;
74177;SDS011;62540;48.456;-4.456;2022-08-19T06:19:04;0.25;;;0.00;;
74177;SDS011;62540;48.456;-4.456;2022-08-19T06:21:32;1.00;;;1.00;;
74177;SDS011;62540;48.456;-4.456;2022-08-19T06:23:58;0.00;;;0.00;;
74177;SDS011;62540;48.456;-4.456;2022-08-19T06:26:24;0.00;;;0.00;;
74177;SDS011;62540;48.456;-4.456;2022-08-19T06:28:50;0.00;;;0.00;;
74177;SDS011;62540;48.456;-4.456;2022-08-19T06:31:19;0.00;;;0.00;;
74177;SDS011;62540;48.456;-4.456;2022-08-19T06:33:49;0.75;;;0.75;;
74177;SDS011;62540;48.456;-4.456;2022-08-19T06:36:21;0.00;;;0.00;;
74177;SDS011;62540;48.456;-4.456;2022-08-19T06:38:55;1.00;;;0.00;;
74177;SDS011;62540;48.456;-4.456;2022-08-19T06:41:22;0.00;;;0.00;;
74177;SDS011;62540;48.456;-4.456;2022-08-19T06:43:49;1.00;;;0.00;;
74177;SDS011;62540;48.456;-4.456;2022-08-19T06:46:15;0.00;;;0.00;;
74177;SDS011;62540;48.456;-4.456;2022-08-19T06:48:43;0.00;;;0.00;;
74177;SDS011;62540;48.456;-4.456;2022-08-19T06:51:09;0.00;;;0.00;;
74177;SDS011;62540;48.456;-4.456;2022-08-19T06:53:34;1.00;;;0.25;;
74177;SDS011;62540;48.456;-4.456;2022-08-19T06:56:00;0.00;;;0.00;;
74177;SDS011;62540;48.456;-4.456;2022-08-19T06:58:27;0.00;;;0.00;;
74177;SDS011;62540;48.456;-4.456;2022-08-19T07:00:57;0.00;;;0.00;;
74177;SDS011;62540;48.456;-4.456;2022-08-19T07:03:30;0.00;;;0.00;;
74177;SDS011;62540;48.456;-4.456;2022-08-19T07:05:57;0.00;;;0.00;;
74177;SDS011;62540;48.456;-4.456;2022-08-19T07:08:27;0.00;;;0.00;;
74177;SDS011;62540;48.456;-4.456;2022-08-19T07:10:53;0.00;;;0.00;;
74177;SDS011;62540;48.456;-4.456;2022-08-19T07:13:18;0.00;;;0.00;;
74177;SDS011;62540;48.456;-4.456;2022-08-19T07:15:44;0.00;;;0.00;;
74177;SDS011;62540;48.456;-4.456;2022-08-19T07:18:11;0.00;;;0.00;;
74177;SDS011;62540;48.456;-4.456;2022-08-19T07:20:36;0.00;;;0.00;;
74177;SDS011;62540;48.456;-4.456;2022-08-19T07:23:02;0.00;;;0.00;;
74177;SDS011;62540;48.456;-4.456;2022-08-19T07:25:27;0.00;;;0.00;;
74177;SDS011;62540;48.456;-4.456;2022-08-19T07:27:53;0.00;;;0.00;;
74177;SDS011;62540;48.456;-4.456;2022-08-19T07:30:18;0.00;;;0.00;;
74177;SDS011;62540;48.456;-4.456;2022-08-19T07:32:44;0.00;;;0.00;;
74177;SDS011;62540;48.456;-4.456;2022-08-19T07:35:09;0.00;;;0.00;;
74177;SDS011;62540;48.456;-4.456;2022-08-19T07:37:35;0.00;;;0.00;;
74177;SDS011;62540;48.456;-4.456;2022-08-19T07:40:02;0.00;;;0.00;;
74177;SDS011;62540;48.456;-4.456;2022-08-19T07:42:29;0.00;;;0.00;;
74177;SDS011;62540;48.456;-4.456;2022-08-19T07:44:55;0.00;;;0.00;;
74177;SDS011;62540;48.456;-4.456;2022-08-19T07:47:20;0.00;;;0.00;;
74177;SDS011;62540;48.456;-4.456;2022-08-19T07:49:45;0.00;;;0.00;;
74177;SDS011;62540;48.456;-4.456;2022-08-19T07:52:12;0.00;;;0.00;;
74177;SDS011;62540;48.456;-4.456;2022-08-19T07:54:37;0.00;;;0.00;;
74177;SDS011;62540;48.456;-4.456;2022-08-19T07:57:04;0.00;;;0.00;;
74177;SDS011;62540;48.456;-4.456;2022-08-19T07:59:30;0.00;;;0.00;;
74177;SDS011;62540;48.456;-4.456;2022-08-19T08:01:56;0.00;;;0.00;;
74177;SDS011;62540;48.456;-4.456;2022-08-19T08:04:24;0.00;;;0.00;;
74177;SDS011;62540;48.456;-4.456;2022-08-19T08:07:08;0.00;;;0.00;;
74177;SDS011;62540;48.456;-4.456;2022-08-19T08:09:52;0.00;;;0.00;;
74177;SDS011;62540;48.456;-4.456;2022-08-19T08:12:19;0.00;;;0.00;;
74177;SDS011;62540;48.456;-4.456;2022-08-19T08:14:49;0.00;;;0.00;;
74177;SDS011;62540;48.456;-4.456;2022-08-19T08:17:18;0.00;;;0.00;;
74177;SDS011;62540;48.456;-4.456;2022-08-19T08:19:47;0.00;;;0.00;;
74177;SDS011;62540;48.456;-4.456;2022-08-19T08:22:15;0.00;;;0.00;;
74177;SDS011;62540;48.456;-4.456;2022-08-19T08:25:08;0.00;;;0.00;;
74177;SDS011;62540;48.456;-4.456;2022-08-19T08:27:41;0.00;;;0.00;;
74177;SDS011;62540;48.456;-4.456;2022-08-19T08:30:09;0.00;;;0.00;;
74177;SDS011;62540;48.456;-4.456;2022-08-19T08:32:37;0.00;;;0.00;;
74177;SDS011;62540;48.456;-4.456;2022-08-19T08:35:07;0.00;;;0.00;;
74177;SDS011;62540;48.456;-4.456;2022-08-19T08:37:35;0.00;;;0.00;;
74177;SDS011;62540;48.456;-4.456;2022-08-19T08:40:06;0.00;;;0.00;;
74177;SDS011;62540;48.456;-4.456;2022-08-19T08:42:57;0.00;;;0.00;;
74177;SDS011;62540;48.456;-4.456;2022-08-19T08:45:29;0.00;;;0.00;;
74177;SDS011;62540;48.456;-4.456;2022-08-19T08:47:56;0.00;;;0.00;;
74177;SDS011;62540;48.456;-4.456;2022-08-19T08:50:39;0.00;;;0.00;;
74177;SDS011;62540;48.456;-4.456;2022-08-19T08:53:08;0.00;;;0.00;;
74177;SDS011;62540;48.456;-4.456;2022-08-19T08:55:35;2.00;;;1.00;;
74177;SDS011;62540;48.456;-4.456;2022-08-19T08:58:03;0.00;;;0.00;;
74177;SDS011;62540;48.456;-4.456;2022-08-19T09:00:37;0.50;;;0.50;;
74177;SDS011;62540;48.456;-4.456;2022-08-19T09:03:06;0.50;;;0.50;;
74177;SDS011;62540;48.456;-4.456;2022-08-19T09:05:44;1.00;;;0.00;;
74177;SDS011;62540;48.456;-4.456;2022-08-19T09:08:39;0.00;;;0.00;;
74177;SDS011;62540;48.456;-4.456;2022-08-19T09:11:15;0.00;;;0.00;;
74177;SDS011;62540;48.456;-4.456;2022-08-19T09:13:55;0.00;;;0.00;;
74177;SDS011;62540;48.456;-4.456;2022-08-19T09:16:27;0.00;;;0.00;;
74177;SDS011;62540;48.456;-4.456;2022-08-19T09:18:57;0.25;;;0.25;;
74177;SDS011;62540;48.456;-4.456;2022-08-19T09:21:27;0.00;;;0.00;;
74177;SDS011;62540;48.456;-4.456;2022-08-19T09:23:52;0.00;;;0.00;;
74177;SDS011;62540;48.456;-4.456;2022-08-19T09:26:19;0.75;;;0.75;;
74177;SDS011;62540;48.456;-4.456;2022-08-19T09:28:50;0.00;;;0.00;;
74177;SDS011;62540;48.456;-4.456;2022-08-19T09:31:27;0.00;;;0.00;;
74177;SDS011;62540;48.456;-4.456;2022-08-19T09:33:54;0.00;;;0.00;;
74177;SDS011;62540;48.456;-4.456;2022-08-19T09:36:22;0.00;;;0.00;;
74177;SDS011;62540;48.456;-4.456;2022-08-19T09:38:49;0.00;;;0.00;;
74177;SDS011;62540;48.456;-4.456;2022-08-19T09:41:17;0.00;;;0.00;;
74177;SDS011;62540;48.456;-4.456;2022-08-19T09:43:45;0.00;;;0.00;;
74177;SDS011;62540;48.456;-4.456;2022-08-19T09:46:12;0.00;;;0.00;;
74177;SDS011;62540;48.456;-4.456;2022-08-19T09:48:38;0.00;;;0.00;;
74177;SDS011;62540;48.456;-4.456;2022-08-19T09:51:08;0.00;;;0.00;;
74177;SDS011;62540;48.456;-4.456;2022-08-19T09:53:36;0.00;;;0.00;;
74177;SDS011;62540;48.456;-4.456;2022-08-19T09:56:03;1.00;;;0.00;;
74177;SDS011;62540;48.456;-4.456;2022-08-19T09:58:29;0.00;;;0.00;;
74177;SDS011;62540;48.456;-4.456;2022-08-19T10:00:55;0.00;;;0.00;;
74177;SDS011;62540;48.456;-4.456;2022-08-19T10:03:23;1.25;;;0.75;;
74177;SDS011;62540;48.456;-4.456;2022-08-19T10:05:49;0.00;;;0.00;;
74177;SDS011;62540;48.456;-4.456;2022-08-19T10:08:34;0.00;;;0.00;;
74177;SDS011;62540;48.456;-4.456;2022-08-19T10:11:02;0.50;;;0.00;;
74177;SDS011;62540;48.456;-4.456;2022-08-19T10:13:29;1.25;;;0.75;;
74177;SDS011;62540;48.456;-4.456;2022-08-19T10:15:56;0.75;;;0.00;;
74177;SDS011;62540;48.456;-4.456;2022-08-19T10:18:28;0.50;;;0.00;;
74177;SDS011;62540;48.456;-4.456;2022-08-19T10:21:01;0.00;;;0.00;;
74177;SDS011;62540;48.456;-4.456;2022-08-19T10:23:32;1.00;;;1.00;;
74177;SDS011;62540;48.456;-4.456;2022-08-19T10:25:59;0.00;;;0.00;;
74177;SDS011;62540;48.456;-4.456;2022-08-19T10:28:25;0.50;;;0.50;;
74177;SDS011;62540;48.456;-4.456;2022-08-19T10:30:50;2.00;;;1.00;;
74177;SDS011;62540;48.456;-4.456;2022-08-19T10:33:16;1.00;;;0.75;;
74177;SDS011;62540;48.456;-4.456;2022-08-19T10:35:41;1.00;;;1.00;;
74177;SDS011;62540;48.456;-4.456;2022-08-19T10:38:07;0.25;;;0.25;;
74177;SDS011;62540;48.456;-4.456;2022-08-19T10:40:32;0.75;;;0.75;;
74177;SDS011;62540;48.456;-4.456;2022-08-19T10:42:58;2.00;;;0.00;;
74177;SDS011;62540;48.456;-4.456;2022-08-19T10:45:23;2.75;;;1.00;;
74177;SDS011;62540;48.456;-4.456;2022-08-19T10:47:51;1.00;;;1.00;;
74177;SDS011;62540;48.456;-4.456;2022-08-19T10:50:18;1.00;;;1.00;;
74177;SDS011;62540;48.456;-4.456;2022-08-19T10:53:07;1.00;;;1.00;;
74177;SDS011;62540;48.456;-4.456;2022-08-19T10:55:33;1.00;;;1.00;;
74177;SDS011;62540;48.456;-4.456;2022-08-19T10:58:18;0.75;;;0.50;;
74177;SDS011;62540;48.456;-4.456;2022-08-19T11:00:54;1.00;;;1.00;;
74177;SDS011;62540;48.456;-4.456;2022-08-19T11:03:22;1.25;;;1.00;;
74177;SDS011;62540;48.456;-4.456;2022-08-19T11:06:02;1.50;;;1.00;;
74177;SDS011;62540;48.456;-4.456;2022-08-19T11:08:30;1.00;;;1.00;;
74177;SDS011;62540;48.456;-4.456;2022-08-19T11:10:57;1.00;;;1.00;;
74177;SDS011;62540;48.456;-4.456;2022-08-19T11:13:29;0.50;;;0.50;;
74177;SDS011;62540;48.456;-4.456;2022-08-19T11:16:11;0.50;;;0.50;;
74177;SDS011;62540;48.456;-4.456;2022-08-19T11:18:44;1.00;;;1.00;;
74177;SDS011;62540;48.456;-4.456;2022-08-19T11:21:13;2.50;;;1.50;;
74177;SDS011;62540;48.456;-4.456;2022-08-19T11:23:44;1.00;;;1.00;;
74177;SDS011;62540;48.456;-4.456;2022-08-19T11:26:10;0.25;;;0.25;;
74177;SDS011;62540;48.456;-4.456;2022-08-19T11:28:36;1.00;;;0.50;;
74177;SDS011;62540;48.456;-4.456;2022-08-19T11:31:01;1.00;;;1.00;;
74177;SDS011;62540;48.456;-4.456;2022-08-19T11:33:28;1.00;;;1.00;;
74177;SDS011;62540;48.456;-4.456;2022-08-19T11:35:57;0.50;;;0.50;;
74177;SDS011;62540;48.456;-4.456;2022-08-19T11:38:23;1.75;;;0.75;;
74177;SDS011;62540;48.456;-4.456;2022-08-19T11:40:58;2.00;;;2.00;;
74177;SDS011;62540;48.456;-4.456;2022-08-19T11:43:25;1.25;;;1.00;;
74177;SDS011;62540;48.456;-4.456;2022-08-19T11:45:52;2.25;;;2.00;;
74177;SDS011;62540;48.456;-4.456;2022-08-19T11:48:24;3.50;;;1.00;;
74177;SDS011;62540;48.456;-4.456;2022-08-19T11:50:53;1.25;;;1.00;;
74177;SDS011;62540;48.456;-4.456;2022-08-19T11:53:22;1.25;;;1.00;;
74177;SDS011;62540;48.456;-4.456;2022-08-19T11:55:48;1.00;;;1.00;;
74177;SDS011;62540;48.456;-4.456;2022-08-19T11:58:15;1.25;;;1.25;;
74177;SDS011;62540;48.456;-4.456;2022-08-19T12:00:42;1.00;;;0.00;;
74177;SDS011;62540;48.456;-4.456;2022-08-19T12:03:10;0.00;;;0.00;;
74177;SDS011;62540;48.456;-4.456;2022-08-19T12:05:37;2.00;;;0.75;;
74177;SDS011;62540;48.456;-4.456;2022-08-19T12:08:04;0.50;;;0.00;;
74177;SDS011;62540;48.456;-4.456;2022-08-19T12:10:29;0.50;;;0.25;;
74177;SDS011;62540;48.456;-4.456;2022-08-19T12:12:55;1.25;;;1.00;;
74177;SDS011;62540;48.456;-4.456;2022-08-19T12:15:20;0.50;;;0.50;;
74177;SDS011;62540;48.456;-4.456;2022-08-19T12:17:46;1.50;;;0.00;;
74177;SDS011;62540;48.456;-4.456;2022-08-19T12:20:12;2.00;;;2.00;;
74177;SDS011;62540;48.456;-4.456;2022-08-19T12:22:40;0.00;;;0.00;;
74177;SDS011;62540;48.456;-4.456;2022-08-19T12:25:06;1.00;;;1.00;;
74177;SDS011;62540;48.456;-4.456;2022-08-19T12:27:32;1.00;;;1.00;;
74177;SDS011;62540;48.456;-4.456;2022-08-19T12:29:58;1.00;;;1.00;;
74177;SDS011;62540;48.456;-4.456;2022-08-19T12:32:26;2.00;;;1.00;;
74177;SDS011;62540;48.456;-4.456;2022-08-19T12:34:51;2.00;;;0.00;;
74177;SDS011;62540;48.456;-4.456;2022-08-19T12:37:17;1.00;;;0.75;;
74177;SDS011;62540;48.456;-4.456;2022-08-19T12:39:43;0.50;;;0.50;;
74177;SDS011;62540;48.456;-4.456;2022-08-19T12:42:12;0.00;;;0.00;;
74177;SDS011;62540;48.456;-4.456;2022-08-19T12:44:39;3.00;;;0.00;;
74177;SDS011;62540;48.456;-4.456;2022-08-19T12:47:05;0.75;;;0.75;;
74177;SDS011;62540;48.456;-4.456;2022-08-19T12:49:32;2.00;;;2.00;;
74177;SDS011;62540;48.456;-4.456;2022-08-19T12:52:02;1.00;;;0.00;;
74177;SDS011;62540;48.456;-4.456;2022-08-19T12:54:33;0.50;;;0.50;;
74177;SDS011;62540;48.456;-4.456;2022-08-19T12:56:59;1.25;;;1.00;;
74177;SDS011;62540;48.456;-4.456;2022-08-19T12:59:25;1.00;;;0.50;;
74177;SDS011;62540;48.456;-4.456;2022-08-19T13:01:52;1.00;;;1.00;;
74177;SDS011;62540;48.456;-4.456;2022-08-19T13:04:17;0.00;;;0.00;;
74177;SDS011;62540;48.456;-4.456;2022-08-19T13:06:43;1.00;;;1.00;;
74177;SDS011;62540;48.456;-4.456;2022-08-19T13:09:09;1.00;;;0.50;;
74177;SDS011;62540;48.456;-4.456;2022-08-19T13:11:35;0.00;;;0.00;;
74177;SDS011;62540;48.456;-4.456;2022-08-19T13:14:02;0.75;;;0.75;;
74177;SDS011;62540;48.456;-4.456;2022-08-19T13:16:28;0.25;;;0.25;;
74177;SDS011;62540;48.456;-4.456;2022-08-19T13:18:54;3.00;;;0.00;;
74177;SDS011;62540;48.456;-4.456;2022-08-19T13:21:22;0.00;;;0.00;;
74177;SDS011;62540;48.456;-4.456;2022-08-19T13:23:51;0.25;;;0.00;;
74177;SDS011;62540;48.456;-4.456;2022-08-19T13:26:17;0.50;;;0.50;;
74177;SDS011;62540;48.456;-4.456;2022-08-19T13:28:43;0.00;;;0.00;;
74177;SDS011;62540;48.456;-4.456;2022-08-19T13:31:30;0.00;;;0.00;;
74177;SDS011;62540;48.456;-4.456;2022-08-19T13:34:15;0.25;;;0.00;;
74177;SDS011;62540;48.456;-4.456;2022-08-19T13:36:42;1.00;;;0.00;;
74177;SDS011;62540;48.456;-4.456;2022-08-19T13:39:08;0.25;;;0.25;;
74177;SDS011;62540;48.456;-4.456;2022-08-19T13:41:35;0.00;;;0.00;;
74177;SDS011;62540;48.456;-4.456;2022-08-19T13:44:02;0.00;;;0.00;;
74177;SDS011;62540;48.456;-4.456;2022-08-19T13:46:28;2.00;;;1.00;;
74177;SDS011;62540;48.456;-4.456;2022-08-19T13:48:55;0.00;;;0.00;;
74177;SDS011;62540;48.456;-4.456;2022-08-19T13:51:21;1.00;;;0.25;;
74177;SDS011;62540;48.456;-4.456;2022-08-19T13:53:47;0.00;;;0.00;;
74177;SDS011;62540;48.456;-4.456;2022-08-19T13:56:13;0.00;;;0.00;;
74177;SDS011;62540;48.456;-4.456;2022-08-19T13:58:40;0.00;;;0.00;;
74177;SDS011;62540;48.456;-4.456;2022-08-19T14:01:06;0.50;;;0.00;;
74177;SDS011;62540;48.456;-4.456;2022-08-19T14:03:34;1.00;;;0.00;;
74177;SDS011;62540;48.456;-4.456;2022-08-19T14:05:59;1.25;;;1.00;;
74177;SDS011;62540;48.456;-4.456;2022-08-19T14:08:26;0.50;;;0.00;;
74177;SDS011;62540;48.456;-4.456;2022-08-19T14:10:53;0.00;;;0.00;;
74177;SDS011;62540;48.456;-4.456;2022-08-19T14:13:22;0.25;;;0.25;;
74177;SDS011;62540;48.456;-4.456;2022-08-19T14:15:47;0.00;;;0.00;;
74177;SDS011;62540;48.456;-4.456;2022-08-19T14:18:14;1.00;;;1.00;;
74177;SDS011;62540;48.456;-4.456;2022-08-19T14:20:41;1.00;;;0.00;;
74177;SDS011;62540;48.456;-4.456;2022-08-19T14:23:06;1.00;;;0.00;;
74177;SDS011;62540;48.456;-4.456;2022-08-19T14:25:32;3.25;;;0.00;;
74177;SDS011;62540;48.456;-4.456;2022-08-19T14:27:59;1.00;;;1.00;;
74177;SDS011;62540;48.456;-4.456;2022-08-19T14:30:26;0.75;;;0.00;;
74177;SDS011;62540;48.456;-4.456;2022-08-19T14:32:54;1.50;;;0.50;;
74177;SDS011;62540;48.456;-4.456;2022-08-19T14:35:21;1.75;;;1.00;;
74177;SDS011;62540;48.456;-4.456;2022-08-19T14:37:48;2.00;;;1.00;;
74177;SDS011;62540;48.456;-4.456;2022-08-19T14:40:15;1.00;;;1.00;;
74177;SDS011;62540;48.456;-4.456;2022-08-19T14:42:44;0.00;;;0.00;;